Columbus, Kansas
Current Conditions -  °F | °C
As of 7:53 AM on Thursday 23 Oct 2014 (Local Time) from KJLN Reporting Station
Overcast Overcast  
Wind Chill: 58°   Ceiling: 9500
Heat Index: 58°   Visibility: 10mi
Dew Point: 52°   Wind: 7mph
Humidity: 81%   Direction: 190°S
Pressure: 30.16"   Gusts: NA
Location:  37.17°N, 94.84°W
Report Text: KJLN 231253Z 19006KT 10SM SCT042 SCT050 OVC095 14/11 A3016 RMK AO2 RAE27 SLP207 P0000 T01440111
Loading
Personal Weather Stations






























Interactive Weather Map
Tropical Storm Tracking
New forecast layout! Learn more

10-Day Weather Forecast

Advertisements
Track Severe Weather on mobile